Terminal Aerodrome Forecast
Issued by NWS Albany, NY

Home | Current Version | Previous Version | Text Only | Print | Product List | Glossary On
Versions: 1 2 3 4 5 6 7 8 9 10 11 12 13 14 15 16 17 18
843
FTUS41 KALY 250530
TAFGFL
TAF
KGFL 250530Z 2506/2606 00000KT 2SM BR VCSH OVC012
      TEMPO 2506/2510 1SM BR OVC005
     FM251500 02007KT 3SM BR VCSH SCT010 OVC025 PROB30 2515/2519 4SM
      -RA OVC007
     FM260000 03005KT P6SM SCT250=

USA.gov is the U.S. government's official web portal to all federal, state and local government web resources and services.